sensor_id;sensor_type;location;lat;lon;timestamp;temperature;humidity
52073;DHT22;38074;51.232;6.826;2023-03-14T00:02:54;23.80;42.50
52073;DHT22;38074;51.232;6.826;2023-03-14T00:10:12;23.80;42.50
52073;DHT22;38074;51.232;6.826;2023-03-14T00:17:29;23.80;42.50
52073;DHT22;38074;51.232;6.826;2023-03-14T00:24:45;23.80;42.50
52073;DHT22;38074;51.232;6.826;2023-03-14T00:32:00;23.80;42.50
52073;DHT22;38074;51.232;6.826;2023-03-14T00:39:16;23.80;42.50
52073;DHT22;38074;51.232;6.826;2023-03-14T00:46:31;23.80;43.10
52073;DHT22;38074;51.232;6.826;2023-03-14T00:53:47;23.80;42.50
52073;DHT22;38074;51.232;6.826;2023-03-14T01:01:09;23.80;42.50
52073;DHT22;38074;51.232;6.826;2023-03-14T01:08:25;23.80;42.50
52073;DHT22;38074;51.232;6.826;2023-03-14T01:15:40;23.70;42.40
52073;DHT22;38074;51.232;6.826;2023-03-14T01:22:56;23.80;42.50
52073;DHT22;38074;51.232;6.826;2023-03-14T01:30:12;23.80;42.50
52073;DHT22;38074;51.232;6.826;2023-03-14T01:37:28;23.80;42.50
52073;DHT22;38074;51.232;6.826;2023-03-14T01:44:56;23.80;42.50
52073;DHT22;38074;51.232;6.826;2023-03-14T01:52:19;23.80;42.50
52073;DHT22;38074;51.232;6.826;2023-03-14T01:59:38;23.80;42.50
52073;DHT22;38074;51.232;6.826;2023-03-14T02:07:03;23.80;42.50
52073;DHT22;38074;51.232;6.826;2023-03-14T02:14:34;23.80;42.40
52073;DHT22;38074;51.232;6.826;2023-03-14T02:21:59;23.80;42.40
52073;DHT22;38074;51.232;6.826;2023-03-14T02:29:16;23.80;42.40
52073;DHT22;38074;51.232;6.826;2023-03-14T02:36:32;23.70;42.40
52073;DHT22;38074;51.232;6.826;2023-03-14T02:43:47;23.70;42.30
52073;DHT22;38074;51.232;6.826;2023-03-14T02:51:03;23.70;42.30
52073;DHT22;38074;51.232;6.826;2023-03-14T02:58:19;23.70;42.30
52073;DHT22;38074;51.232;6.826;2023-03-14T03:05:34;23.80;42.30
52073;DHT22;38074;51.232;6.826;2023-03-14T03:12:50;23.70;42.30
52073;DHT22;38074;51.232;6.826;2023-03-14T03:20:07;23.80;42.40
52073;DHT22;38074;51.232;6.826;2023-03-14T03:27:24;23.70;42.30
52073;DHT22;38074;51.232;6.826;2023-03-14T03:34:39;23.70;42.20
52073;DHT22;38074;51.232;6.826;2023-03-14T03:41:55;23.70;42.30
52073;DHT22;38074;51.232;6.826;2023-03-14T03:49:11;23.80;42.30
52073;DHT22;38074;51.232;6.826;2023-03-14T03:56:26;23.70;42.30
52073;DHT22;38074;51.232;6.826;2023-03-14T04:03:42;23.70;42.20
52073;DHT22;38074;51.232;6.826;2023-03-14T04:10:58;23.70;42.20
52073;DHT22;38074;51.232;6.826;2023-03-14T04:18:14;23.70;42.30
52073;DHT22;38074;51.232;6.826;2023-03-14T04:25:29;23.70;42.30
52073;DHT22;38074;51.232;6.826;2023-03-14T04:32:45;23.70;42.30
52073;DHT22;38074;51.232;6.826;2023-03-14T04:40:00;23.70;42.20
52073;DHT22;38074;51.232;6.826;2023-03-14T04:47:16;23.70;42.30
52073;DHT22;38074;51.232;6.826;2023-03-14T04:54:32;23.70;42.30
52073;DHT22;38074;51.232;6.826;2023-03-14T05:01:47;23.70;42.30
52073;DHT22;38074;51.232;6.826;2023-03-14T05:09:04;23.70;42.30
52073;DHT22;38074;51.232;6.826;2023-03-14T05:16:20;23.70;42.30
52073;DHT22;38074;51.232;6.826;2023-03-14T05:23:36;23.70;42.30
52073;DHT22;38074;51.232;6.826;2023-03-14T05:30:51;23.70;42.30
52073;DHT22;38074;51.232;6.826;2023-03-14T05:38:07;23.70;42.30
52073;DHT22;38074;51.232;6.826;2023-03-14T05:45:22;23.70;42.30
52073;DHT22;38074;51.232;6.826;2023-03-14T05:52:38;23.70;42.40
52073;DHT22;38074;51.232;6.826;2023-03-14T05:59:53;23.70;42.30
52073;DHT22;38074;51.232;6.826;2023-03-14T06:07:09;23.70;42.30
52073;DHT22;38074;51.232;6.826;2023-03-14T06:14:24;23.70;42.30
52073;DHT22;38074;51.232;6.826;2023-03-14T06:21:40;23.70;42.30
52073;DHT22;38074;51.232;6.826;2023-03-14T06:28:55;23.70;42.30
52073;DHT22;38074;51.232;6.826;2023-03-14T06:36:11;23.70;42.40
52073;DHT22;38074;51.232;6.826;2023-03-14T06:43:26;23.70;42.40
52073;DHT22;38074;51.232;6.826;2023-03-14T06:50:42;23.70;42.70
52073;DHT22;38074;51.232;6.826;2023-03-14T06:57:58;23.80;42.80
52073;DHT22;38074;51.232;6.826;2023-03-14T07:05:13;23.80;42.90
52073;DHT22;38074;51.232;6.826;2023-03-14T07:12:29;23.80;42.90
52073;DHT22;38074;51.232;6.826;2023-03-14T07:19:44;23.80;42.90
52073;DHT22;38074;51.232;6.826;2023-03-14T07:27:00;23.80;43.00
52073;DHT22;38074;51.232;6.826;2023-03-14T07:34:15;23.80;43.10
52073;DHT22;38074;51.232;6.826;2023-03-14T07:41:31;23.80;43.10
52073;DHT22;38074;51.232;6.826;2023-03-14T07:48:47;23.80;43.20
52073;DHT22;38074;51.232;6.826;2023-03-14T07:56:03;23.80;43.30
52073;DHT22;38074;51.232;6.826;2023-03-14T08:03:19;23.70;43.30
52073;DHT22;38074;51.232;6.826;2023-03-14T08:10:34;23.80;43.50
52073;DHT22;38074;51.232;6.826;2023-03-14T08:17:50;23.90;43.50
52073;DHT22;38074;51.232;6.826;2023-03-14T08:25:06;24.00;43.60
52073;DHT22;38074;51.232;6.826;2023-03-14T08:32:22;24.00;43.50
52073;DHT22;38074;51.232;6.826;2023-03-14T08:39:38;24.00;43.50
52073;DHT22;38074;51.232;6.826;2023-03-14T08:46:54;24.10;43.50
52073;DHT22;38074;51.232;6.826;2023-03-14T08:54:11;24.20;43.50
52073;DHT22;38074;51.232;6.826;2023-03-14T09:01:26;24.20;43.50
52073;DHT22;38074;51.232;6.826;2023-03-14T09:08:42;24.20;43.60
52073;DHT22;38074;51.232;6.826;2023-03-14T09:15:58;24.30;43.70
52073;DHT22;38074;51.232;6.826;2023-03-14T09:23:14;24.30;43.70
52073;DHT22;38074;51.232;6.826;2023-03-14T09:30:29;24.30;43.70
52073;DHT22;38074;51.232;6.826;2023-03-14T09:37:45;24.30;43.70
52073;DHT22;38074;51.232;6.826;2023-03-14T09:45:05;24.40;43.80
52073;DHT22;38074;51.232;6.826;2023-03-14T09:52:23;24.40;43.80
52073;DHT22;38074;51.232;6.826;2023-03-14T09:59:43;24.40;43.80
52073;DHT22;38074;51.232;6.826;2023-03-14T10:06:59;24.40;43.80
52073;DHT22;38074;51.232;6.826;2023-03-14T10:14:35;24.40;43.70
52073;DHT22;38074;51.232;6.826;2023-03-14T10:21:53;24.40;43.70
52073;DHT22;38074;51.232;6.826;2023-03-14T10:29:11;24.40;43.70
52073;DHT22;38074;51.232;6.826;2023-03-14T10:36:32;24.40;43.60
52073;DHT22;38074;51.232;6.826;2023-03-14T10:43:51;24.50;43.60
52073;DHT22;38074;51.232;6.826;2023-03-14T10:51:11;24.50;43.60
52073;DHT22;38074;51.232;6.826;2023-03-14T10:58:38;24.50;43.50
52073;DHT22;38074;51.232;6.826;2023-03-14T11:06:06;24.50;43.40
52073;DHT22;38074;51.232;6.826;2023-03-14T11:13:35;24.40;43.30
52073;DHT22;38074;51.232;6.826;2023-03-14T11:28:26;24.50;43.20
52073;DHT22;38074;51.232;6.826;2023-03-14T11:35:55;24.50;43.20
52073;DHT22;38074;51.232;6.826;2023-03-14T11:50:43;24.60;43.20
52073;DHT22;38074;51.232;6.826;2023-03-14T11:58:19;24.60;43.20
52073;DHT22;38074;51.232;6.826;2023-03-14T12:13:03;24.60;43.10
52073;DHT22;38074;51.232;6.826;2023-03-14T12:20:21;24.60;43.10
52073;DHT22;38074;51.232;6.826;2023-03-14T12:42:59;24.40;44.70
52073;DHT22;38074;51.232;6.826;2023-03-14T12:50:41;24.30;44.90
52073;DHT22;38074;51.232;6.826;2023-03-14T12:58:13;24.30;45.20
52073;DHT22;38074;51.232;6.826;2023-03-14T13:05:31;24.30;45.30
52073;DHT22;38074;51.232;6.826;2023-03-14T13:13:15;24.20;45.20
52073;DHT22;38074;51.232;6.826;2023-03-14T13:20:36;24.20;45.50
52073;DHT22;38074;51.232;6.826;2023-03-14T13:27:53;24.20;45.50
52073;DHT22;38074;51.232;6.826;2023-03-14T13:35:17;24.20;45.50
52073;DHT22;38074;51.232;6.826;2023-03-14T13:42:33;24.10;45.50
52073;DHT22;38074;51.232;6.826;2023-03-14T13:49:49;24.10;45.40
52073;DHT22;38074;51.232;6.826;2023-03-14T13:57:05;24.10;45.50
52073;DHT22;38074;51.232;6.826;2023-03-14T14:04:24;24.10;45.50
52073;DHT22;38074;51.232;6.826;2023-03-14T14:11:45;24.10;45.50
52073;DHT22;38074;51.232;6.826;2023-03-14T14:19:02;24.10;45.50
52073;DHT22;38074;51.232;6.826;2023-03-14T14:26:19;24.10;45.40
52073;DHT22;38074;51.232;6.826;2023-03-14T14:33:40;24.00;45.40
52073;DHT22;38074;51.232;6.826;2023-03-14T14:41:00;24.00;45.40
52073;DHT22;38074;51.232;6.826;2023-03-14T14:48:21;24.00;45.30
52073;DHT22;38074;51.232;6.826;2023-03-14T14:55:41;24.00;45.30
52073;DHT22;38074;51.232;6.826;2023-03-14T15:03:00;24.00;45.30
52073;DHT22;38074;51.232;6.826;2023-03-14T15:10:18;24.00;45.20
52073;DHT22;38074;51.232;6.826;2023-03-14T15:17:34;24.00;45.10
52073;DHT22;38074;51.232;6.826;2023-03-14T15:24:51;24.00;45.10
52073;DHT22;38074;51.232;6.826;2023-03-14T15:32:11;24.20;45.10
52073;DHT22;38074;51.232;6.826;2023-03-14T15:39:27;24.20;44.90
52073;DHT22;38074;51.232;6.826;2023-03-14T15:46:43;24.20;44.80
52073;DHT22;38074;51.232;6.826;2023-03-14T15:53:58;24.30;44.70
52073;DHT22;38074;51.232;6.826;2023-03-14T16:01:15;24.30;44.50
52073;DHT22;38074;51.232;6.826;2023-03-14T16:08:31;24.30;44.30
52073;DHT22;38074;51.232;6.826;2023-03-14T16:15:54;24.30;44.20
52073;DHT22;38074;51.232;6.826;2023-03-14T16:23:10;24.40;44.10
52073;DHT22;38074;51.232;6.826;2023-03-14T16:30:26;24.30;43.90
52073;DHT22;38074;51.232;6.826;2023-03-14T16:37:42;24.40;43.90
52073;DHT22;38074;51.232;6.826;2023-03-14T16:44:57;24.40;43.80
52073;DHT22;38074;51.232;6.826;2023-03-14T16:52:13;24.30;43.60
52073;DHT22;38074;51.232;6.826;2023-03-14T16:59:28;24.30;43.60
52073;DHT22;38074;51.232;6.826;2023-03-14T17:06:44;24.20;43.20
52073;DHT22;38074;51.232;6.826;2023-03-14T17:14:01;24.10;43.20
52073;DHT22;38074;51.232;6.826;2023-03-14T17:21:16;24.10;43.20
52073;DHT22;38074;51.232;6.826;2023-03-14T17:28:32;24.00;43.10
52073;DHT22;38074;51.232;6.826;2023-03-14T17:35:48;24.00;43.00
52073;DHT22;38074;51.232;6.826;2023-03-14T17:43:03;24.00;42.90
52073;DHT22;38074;51.232;6.826;2023-03-14T17:50:19;24.00;42.90
52073;DHT22;38074;51.232;6.826;2023-03-14T17:57:36;24.00;42.70
52073;DHT22;38074;51.232;6.826;2023-03-14T18:04:54;24.00;42.70
52073;DHT22;38074;51.232;6.826;2023-03-14T18:12:10;23.90;42.50
52073;DHT22;38074;51.232;6.826;2023-03-14T18:19:25;24.00;42.70
52073;DHT22;38074;51.232;6.826;2023-03-14T18:26:41;24.10;42.50
52073;DHT22;38074;51.232;6.826;2023-03-14T18:33:56;23.90;41.50
52073;DHT22;38074;51.232;6.826;2023-03-14T18:41:14;23.90;41.50
52073;DHT22;38074;51.232;6.826;2023-03-14T18:48:30;23.90;41.40
52073;DHT22;38074;51.232;6.826;2023-03-14T18:55:45;23.90;41.30
52073;DHT22;38074;51.232;6.826;2023-03-14T19:03:01;23.90;41.30
52073;DHT22;38074;51.232;6.826;2023-03-14T19:10:18;23.90;41.30
52073;DHT22;38074;51.232;6.826;2023-03-14T19:17:33;23.90;41.30
52073;DHT22;38074;51.232;6.826;2023-03-14T19:24:49;23.90;41.40
52073;DHT22;38074;51.232;6.826;2023-03-14T19:32:04;23.90;41.30
52073;DHT22;38074;51.232;6.826;2023-03-14T19:39:20;23.90;41.30
52073;DHT22;38074;51.232;6.826;2023-03-14T19:46:35;23.90;41.30
52073;DHT22;38074;51.232;6.826;2023-03-14T19:53:51;23.90;41.20
52073;DHT22;38074;51.232;6.826;2023-03-14T20:01:08;23.80;40.50
52073;DHT22;38074;51.232;6.826;2023-03-14T20:08:23;23.70;39.60
52073;DHT22;38074;51.232;6.826;2023-03-14T20:15:39;23.70;39.40
52073;DHT22;38074;51.232;6.826;2023-03-14T20:22:55;23.60;39.30
52073;DHT22;38074;51.232;6.826;2023-03-14T20:30:13;23.70;39.20
52073;DHT22;38074;51.232;6.826;2023-03-14T20:37:29;23.70;39.10
52073;DHT22;38074;51.232;6.826;2023-03-14T20:44:44;23.70;38.90
52073;DHT22;38074;51.232;6.826;2023-03-14T20:52:00;23.80;38.90
52073;DHT22;38074;51.232;6.826;2023-03-14T20:59:15;23.80;38.80
52073;DHT22;38074;51.232;6.826;2023-03-14T21:06:31;23.80;38.70
52073;DHT22;38074;51.232;6.826;2023-03-14T21:13:47;23.80;38.70
52073;DHT22;38074;51.232;6.826;2023-03-14T21:21:03;23.70;38.60
52073;DHT22;38074;51.232;6.826;2023-03-14T21:28:18;23.70;38.50
52073;DHT22;38074;51.232;6.826;2023-03-14T21:35:34;23.70;38.40
52073;DHT22;38074;51.232;6.826;2023-03-14T21:42:49;23.70;38.40
52073;DHT22;38074;51.232;6.826;2023-03-14T21:50:09;23.70;38.20
52073;DHT22;38074;51.232;6.826;2023-03-14T21:57:24;23.70;38.30
52073;DHT22;38074;51.232;6.826;2023-03-14T22:04:44;23.70;38.40
52073;DHT22;38074;51.232;6.826;2023-03-14T22:11:59;23.70;38.20
52073;DHT22;38074;51.232;6.826;2023-03-14T22:19:15;23.70;38.90
52073;DHT22;38074;51.232;6.826;2023-03-14T22:26:30;23.70;38.20
52073;DHT22;38074;51.232;6.826;2023-03-14T22:33:46;23.70;38.20
52073;DHT22;38074;51.232;6.826;2023-03-14T22:41:03;23.70;38.20
52073;DHT22;38074;51.232;6.826;2023-03-14T22:48:19;23.70;38.40
52073;DHT22;38074;51.232;6.826;2023-03-14T22:55:34;23.70;38.60
52073;DHT22;38074;51.232;6.826;2023-03-14T23:02:50;23.70;38.60
52073;DHT22;38074;51.232;6.826;2023-03-14T23:10:06;23.70;38.70
52073;DHT22;38074;51.232;6.826;2023-03-14T23:17:21;23.70;38.70
52073;DHT22;38074;51.232;6.826;2023-03-14T23:24:39;23.70;38.80
52073;DHT22;38074;51.232;6.826;2023-03-14T23:31:55;23.70;38.70
52073;DHT22;38074;51.232;6.826;2023-03-14T23:39:11;23.70;38.80
52073;DHT22;38074;51.232;6.826;2023-03-14T23:46:27;23.70;38.80
52073;DHT22;38074;51.232;6.826;2023-03-14T23:53:43;23.70;38.90
